TAF KPIE
AMD KPIE 091016Z 0910/1006 VRB03KT 3/4SM BR BKN002 BKN120 FM091500 11005KT 1SM BR BKN003 BKN020 FM091600 11005KT P6SM FEW003 SCT020 FM092200 26006KT P6SM FEW025 SCT200 FM100400 VRB03KT P6SM SCT090=
METAR KPIE
WC KPIE
WS KPIE
WV KPIE